Time;durP1;ratioP1;P1;durP2;ratioP2;P2;SDS_P1;SDS_P2;PMS_P1;PMS_P2;Temp;Humidity;BMP_temperature;BMP_pressure;BME280_temperature;BME280_humidity;BME280_pressure;Samples;Min_cycle;Max_cycle;Signal;HPM_P1;HPM_P2
2023/10/23 00:02:26;;;;;;;12.17;4.87;;;9.20;99.90;;;;;;5089354;28;20259;-59
2023/10/23 00:04:56;;;;;;;10.83;4.80;;;9.20;99.90;;;;;;5079828;28;20230;-59
2023/10/23 00:07:24;;;;;;;13.20;5.40;;;9.20;99.90;;;;;;5085464;28;20195;-58
2023/10/23 00:09:52;;;;;;;7.70;5.07;;;9.10;99.90;;;;;;5087984;28;20549;-59
2023/10/23 00:12:20;;;;;;;9.47;5.17;;;9.00;99.90;;;;;;5078146;28;20220;-59
2023/10/23 00:14:49;;;;;;;7.80;4.87;;;8.90;99.90;;;;;;5079781;28;20215;-59
2023/10/23 00:17:17;;;;;;;9.37;4.97;;;8.90;99.90;;;;;;5083119;28;20231;-60
2023/10/23 00:19:45;;;;;;;8.17;4.53;;;8.80;99.90;;;;;;5083518;28;20247;-59
2023/10/23 00:22:14;;;;;;;11.67;4.80;;;8.80;99.90;;;;;;5081345;28;20696;-59
2023/10/23 00:24:43;;;;;;;13.50;5.20;;;8.70;99.90;;;;;;5087619;28;20215;-59
2023/10/23 00:27:11;;;;;;;6.80;4.47;;;8.60;99.90;;;;;;5088483;28;20673;-59
2023/10/23 00:29:39;;;;;;;8.27;4.33;;;8.60;99.90;;;;;;5086734;28;20226;-59
2023/10/23 00:32:08;;;;;;;10.73;4.83;;;8.50;99.90;;;;;;5087370;28;20215;-59
2023/10/23 00:34:36;;;;;;;9.87;4.43;;;8.40;99.90;;;;;;5068196;28;20274;-59
2023/10/23 00:37:05;;;;;;;7.03;4.77;;;8.40;99.90;;;;;;5089530;28;20217;-59
2023/10/23 00:39:34;;;;;;;14.33;5.17;;;8.30;99.90;;;;;;5087010;28;20222;-59
2023/10/23 00:42:03;;;;;;;9.73;5.10;;;8.30;99.90;;;;;;5080156;28;20605;-59
2023/10/23 00:44:31;;;;;;;7.13;3.97;;;8.30;99.90;;;;;;5087783;28;20230;-59
2023/10/23 00:46:59;;;;;;;5.50;4.67;;;8.30;99.90;;;;;;5086226;28;20231;-59
2023/10/23 00:49:28;;;;;;;3.37;3.10;;;8.30;99.90;;;;;;5092074;28;20249;-59
2023/10/23 00:51:56;;;;;;;8.40;4.00;;;8.20;99.90;;;;;;5092168;28;20187;-59
2023/10/23 00:54:25;;;;;;;8.03;4.47;;;8.20;99.90;;;;;;5088985;28;20215;-59
2023/10/23 00:56:55;;;;;;;10.97;5.27;;;8.10;99.90;;;;;;5086657;28;20298;-59
2023/10/23 00:59:23;;;;;;;8.00;4.57;;;8.10;99.90;;;;;;5086061;28;20216;-59
2023/10/23 01:01:52;;;;;;;9.67;4.00;;;8.00;99.90;;;;;;5087910;28;20234;-59
2023/10/23 01:04:21;;;;;;;4.13;3.70;;;8.00;99.90;;;;;;5092015;28;20253;-59
2023/10/23 01:06:50;;;;;;;4.40;3.57;;;8.00;99.90;;;;;;5060359;28;20306;-59
2023/10/23 01:09:18;;;;;;;5.50;4.10;;;7.90;99.90;;;;;;5087150;28;20302;-59
2023/10/23 01:11:46;;;;;;;7.53;4.10;;;7.90;99.90;;;;;;5076138;28;20230;-59
2023/10/23 01:14:16;;;;;;;5.93;3.23;;;7.90;99.90;;;;;;5070666;28;20223;-59
2023/10/23 01:16:44;;;;;;;4.10;3.63;;;7.90;99.90;;;;;;5065861;28;20227;-59
2023/10/23 01:19:13;;;;;;;4.67;4.20;;;7.80;99.90;;;;;;5078766;28;20199;-60
2023/10/23 01:21:41;;;;;;;7.13;4.00;;;7.80;99.90;;;;;;5085023;28;20211;-59
2023/10/23 01:24:12;;;;;;;6.23;4.37;;;7.80;99.90;;;;;;5088286;28;20306;-59
2023/10/23 01:26:41;;;;;;;5.47;4.67;;;7.80;99.90;;;;;;5086424;28;20696;-59
2023/10/23 01:29:10;;;;;;;14.63;5.30;;;7.80;99.90;;;;;;5086277;28;20246;-59
2023/10/23 01:31:38;;;;;;;11.23;5.60;;;7.90;99.90;;;;;;5095268;28;20184;-59
2023/10/23 01:34:06;;;;;;;13.40;6.23;;;7.90;99.90;;;;;;5074187;28;20191;-59
2023/10/23 01:36:35;;;;;;;10.63;6.27;;;8.00;99.90;;;;;;5080486;28;20215;-59
2023/10/23 01:39:04;;;;;;;16.63;7.00;;;8.10;99.90;;;;;;5085822;28;20616;-59
2023/10/23 01:41:32;;;;;;;10.40;6.27;;;8.10;99.90;;;;;;5093335;28;20600;-59
2023/10/23 01:44:02;;;;;;;17.13;7.00;;;8.20;99.90;;;;;;5089748;28;20239;-59
2023/10/23 01:46:30;;;;;;;10.20;6.33;;;8.20;99.90;;;;;;5088421;28;20196;-58
2023/10/23 01:48:58;;;;;;;9.10;5.87;;;8.20;99.90;;;;;;5085642;28;20202;-59
2023/10/23 01:51:27;;;;;;;9.30;5.20;;;8.20;99.90;;;;;;5091342;28;20207;-59
2023/10/23 01:53:55;;;;;;;14.53;6.10;;;8.10;99.90;;;;;;5089210;28;20637;-59
2023/10/23 01:56:24;;;;;;;12.60;5.50;;;8.00;99.90;;;;;;5092546;28;20579;-59
2023/10/23 01:58:52;;;;;;;8.60;5.80;;;8.00;99.90;;;;;;5089481;28;20573;-59
2023/10/23 02:01:23;;;;;;;7.80;5.47;;;7.90;99.90;;;;;;5088447;28;20650;-59
2023/10/23 02:03:51;;;;;;;9.27;5.23;;;7.90;99.90;;;;;;5081570;28;20223;-60
2023/10/23 02:06:20;;;;;;;18.17;7.17;;;7.80;99.90;;;;;;5080485;28;20231;-59
2023/10/23 02:08:48;;;;;;;14.30;5.80;;;7.90;99.90;;;;;;5065399;28;20223;-59
2023/10/23 02:11:16;;;;;;;11.97;6.67;;;7.90;99.90;;;;;;5083270;28;20233;-60
2023/10/23 02:13:46;;;;;;;16.90;6.77;;;8.00;99.90;;;;;;5088732;28;20219;-59
2023/10/23 02:16:15;;;;;;;13.43;7.23;;;8.00;99.90;;;;;;5087338;28;20565;-59
2023/10/23 02:18:44;;;;;;;13.20;7.40;;;8.00;99.90;;;;;;5088637;28;20693;-59
2023/10/23 02:21:13;;;;;;;15.87;6.27;;;8.00;99.90;;;;;;5093834;28;20300;-59
2023/10/23 02:23:41;;;;;;;8.67;5.47;;;8.00;99.90;;;;;;5086912;28;20222;-59
2023/10/23 02:26:23;;;;;;;7.87;5.90;;;7.90;99.90;;;;;;5088056;28;20237;-59
2023/10/23 02:28:51;;;;;;;13.60;6.67;;;7.80;99.90;;;;;;5086896;28;20220;-59
2023/10/23 02:31:20;;;;;;;9.10;6.30;;;7.80;99.90;;;;;;5080217;28;20642;-59
2023/10/23 02:33:50;;;;;;;11.30;6.23;;;7.70;99.90;;;;;;5092490;28;20302;-59
2023/10/23 02:36:18;;;;;;;8.23;6.00;;;7.70;99.90;;;;;;5078419;28;20226;-59
2023/10/23 02:38:47;;;;;;;14.73;7.33;;;7.70;99.90;;;;;;5066735;28;20671;-59
2023/10/23 02:41:15;;;;;;;11.97;6.93;;;7.70;99.90;;;;;;5066080;28;20216;-59
2023/10/23 02:43:43;;;;;;;14.00;7.03;;;7.70;99.90;;;;;;5058415;28;20224;-59
2023/10/23 02:46:13;;;;;;;11.10;6.33;;;7.70;99.90;;;;;;5060027;28;20196;-59
2023/10/23 02:48:42;;;;;;;20.70;7.60;;;7.70;99.90;;;;;;5070711;28;20224;-59
2023/10/23 02:51:12;;;;;;;16.63;7.70;;;7.80;99.90;;;;;;5069504;28;20323;-59
2023/10/23 02:53:40;;;;;;;16.97;7.60;;;7.90;99.90;;;;;;5064714;28;20228;-59
2023/10/23 02:56:11;;;;;;;16.33;8.00;;;7.90;99.90;;;;;;5071408;28;20211;-59
2023/10/23 02:58:40;;;;;;;21.00;7.67;;;8.00;99.90;;;;;;5070090;28;20195;-59
2023/10/23 03:01:15;;;;;;;13.23;7.73;;;8.00;99.90;;;;;;5076279;28;20234;-59
2023/10/23 03:03:44;;;;;;;18.97;8.07;;;8.10;99.90;;;;;;5082731;28;20220;-59
2023/10/23 03:06:15;;;;;;;20.73;8.57;;;8.10;99.90;;;;;;5082278;28;20219;-59
2023/10/23 03:08:44;;;;;;;16.20;9.03;;;8.10;99.90;;;;;;5086328;28;20232;-59
2023/10/23 03:11:13;;;;;;;17.23;7.80;;;8.10;99.90;;;;;;5086965;28;20219;-59
2023/10/23 03:13:41;;;;;;;16.47;8.20;;;8.10;99.90;;;;;;5086102;28;20195;-59
2023/10/23 03:16:09;;;;;;;15.70;7.53;;;8.10;99.90;;;;;;5089036;28;20188;-59
2023/10/23 03:18:38;;;;;;;14.67;7.80;;;8.10;99.90;;;;;;5092817;28;20222;-59
2023/10/23 03:21:06;;;;;;;22.10;7.47;;;8.00;99.90;;;;;;5075429;28;20220;-59
2023/10/23 03:23:36;;;;;;;17.60;7.57;;;8.00;99.90;;;;;;5066408;28;20220;-59
2023/10/23 03:26:04;;;;;;;21.83;8.60;;;7.90;99.90;;;;;;5063327;28;20942;-59
2023/10/23 03:28:32;;;;;;;15.50;8.43;;;7.90;99.90;;;;;;5067427;28;20658;-58
2023/10/23 03:31:03;;;;;;;23.23;8.07;;;7.90;99.90;;;;;;5067717;28;20719;-59
2023/10/23 03:33:32;;;;;;;14.13;8.00;;;7.90;99.90;;;;;;5068389;28;20220;-59
2023/10/23 03:36:01;;;;;;;15.77;7.60;;;7.80;99.90;;;;;;5082391;28;20304;-59
2023/10/23 03:38:29;;;;;;;12.67;7.17;;;7.80;99.90;;;;;;5089779;28;20220;-59
2023/10/23 03:40:59;;;;;;;14.83;7.13;;;7.80;99.90;;;;;;5090566;28;20223;-59
2023/10/23 03:43:28;;;;;;;10.37;7.00;;;7.80;99.90;;;;;;5088866;28;20210;-57
2023/10/23 03:45:56;;;;;;;20.93;8.07;;;7.80;99.90;;;;;;5086854;28;20197;-59
2023/10/23 03:48:25;;;;;;;15.63;7.67;;;7.80;99.90;;;;;;5088109;28;20217;-59
2023/10/23 03:50:53;;;;;;;13.43;7.27;;;7.80;99.90;;;;;;5087372;28;20227;-59
2023/10/23 03:53:21;;;;;;;18.67;8.50;;;7.90;99.90;;;;;;5080908;28;20737;-59
2023/10/23 03:55:49;;;;;;;17.63;8.20;;;7.90;99.90;;;;;;5085231;28;20233;-59
2023/10/23 03:58:19;;;;;;;14.80;7.47;;;7.90;99.90;;;;;;5086529;28;20183;-59
2023/10/23 04:00:51;;;;;;;20.60;7.63;;;7.90;99.90;;;;;;5078369;28;20246;-58
2023/10/23 04:03:22;;;;;;;23.20;9.93;;;7.90;99.90;;;;;;5066735;28;20238;-59
2023/10/23 04:05:50;;;;;;;27.83;8.97;;;7.90;99.90;;;;;;5085636;28;20224;-59
2023/10/23 04:08:18;;;;;;;18.53;7.40;;;7.90;99.90;;;;;;5087003;28;20211;-59
2023/10/23 04:10:47;;;;;;;11.63;7.27;;;7.80;99.90;;;;;;5086489;28;20230;-59
2023/10/23 04:13:16;;;;;;;19.80;6.77;;;7.80;99.90;;;;;;5066467;28;20196;-59
2023/10/23 04:15:54;;;;;;;12.37;7.10;;;7.70;99.90;;;;;;5062226;28;20574;-59
2023/10/23 04:18:23;;;;;;;14.63;7.33;;;7.70;99.90;;;;;;5067787;28;20563;-59
2023/10/23 04:20:52;;;;;;;17.03;7.97;;;7.60;99.90;;;;;;5067753;28;20222;-59
2023/10/23 04:23:20;;;;;;;18.50;7.30;;;7.60;99.90;;;;;;5072553;28;20219;-59
2023/10/23 04:25:55;;;;;;;14.10;7.07;;;7.50;99.90;;;;;;5083076;28;20220;-59
2023/10/23 04:28:24;;;;;;;13.70;7.30;;;7.50;99.90;;;;;;5082396;28;20738;-58
2023/10/23 04:30:55;;;;;;;14.73;7.47;;;7.50;99.90;;;;;;5091792;28;20195;-59
2023/10/23 04:33:24;;;;;;;18.30;7.93;;;7.50;99.90;;;;;;5083021;28;20215;-59
2023/10/23 04:35:53;;;;;;;15.17;6.83;;;7.50;99.90;;;;;;5082364;28;20773;-59
2023/10/23 04:38:22;;;;;;;10.00;6.20;;;7.40;99.90;;;;;;5082897;28;20228;-59
2023/10/23 04:40:53;;;;;;;13.43;6.90;;;7.30;99.90;;;;;;5088737;28;20227;-59
2023/10/23 04:43:21;;;;;;;22.20;6.90;;;7.30;99.90;;;;;;5091731;28;20669;-59
2023/10/23 04:45:52;;;;;;;11.83;6.87;;;7.30;99.90;;;;;;5084420;28;20223;-59
2023/10/23 04:48:23;;;;;;;10.80;6.27;;;7.20;99.90;;;;;;5080317;28;20220;-59
2023/10/23 04:50:52;;;;;;;12.60;7.03;;;7.10;99.90;;;;;;5083651;28;20219;-59
2023/10/23 04:53:20;;;;;;;10.30;5.90;;;7.10;99.90;;;;;;5085553;28;20222;-59
2023/10/23 04:55:48;;;;;;;12.70;6.20;;;7.10;99.90;;;;;;5080165;28;20238;-59
2023/10/23 04:58:17;;;;;;;10.40;5.20;;;7.10;99.90;;;;;;5065874;28;20563;-59
2023/10/23 05:00:46;;;;;;;13.17;6.17;;;7.10;99.90;;;;;;5075396;28;20268;-59
2023/10/23 05:03:14;;;;;;;7.60;5.40;;;7.10;99.90;;;;;;5044969;28;20243;-59
2023/10/23 05:05:48;;;;;;;14.60;5.93;;;7.00;99.90;;;;;;5046984;28;20221;-59
2023/10/23 05:08:16;;;;;;;8.87;5.90;;;7.00;99.90;;;;;;5042304;28;20562;-59
2023/10/23 05:10:45;;;;;;;12.33;5.50;;;7.00;99.90;;;;;;5048855;28;20216;-59
2023/10/23 05:13:13;;;;;;;9.43;6.13;;;7.00;99.90;;;;;;5049282;28;20274;-59
2023/10/23 05:15:41;;;;;;;5.03;4.40;;;7.10;99.90;;;;;;5050515;28;20244;-59
2023/10/23 05:18:10;;;;;;;6.50;4.43;;;7.00;99.90;;;;;;5037927;28;20213;-59
2023/10/23 05:20:38;;;;;;;12.70;5.83;;;7.00;99.90;;;;;;5045863;28;20579;-59
2023/10/23 05:23:07;;;;;;;12.90;5.87;;;7.00;99.90;;;;;;5047725;28;20224;-59
2023/10/23 05:25:37;;;;;;;10.17;5.07;;;7.00;99.90;;;;;;5043129;28;20283;-59
2023/10/23 05:28:05;;;;;;;11.77;5.40;;;7.00;99.90;;;;;;5044347;28;20622;-59
2023/10/23 05:30:33;;;;;;;7.87;5.43;;;6.90;99.90;;;;;;5045026;28;20309;-59
2023/10/23 05:33:03;;;;;;;11.43;5.53;;;6.90;99.90;;;;;;5049043;28;20208;-59
2023/10/23 05:35:31;;;;;;;14.47;6.13;;;6.90;99.90;;;;;;5045729;28;20691;-59
2023/10/23 05:37:59;;;;;;;10.90;5.67;;;6.80;99.90;;;;;;5038736;28;20217;-59
2023/10/23 05:40:29;;;;;;;14.63;5.60;;;6.90;99.90;;;;;;5043093;28;20664;-58
2023/10/23 05:42:57;;;;;;;8.17;5.00;;;6.80;99.90;;;;;;5046269;28;20193;-59
2023/10/23 05:45:25;;;;;;;10.63;5.77;;;6.80;99.90;;;;;;5046913;28;20224;-59
2023/10/23 05:47:54;;;;;;;8.10;5.27;;;6.80;99.90;;;;;;5040638;28;20228;-59
2023/10/23 05:50:22;;;;;;;7.87;5.63;;;6.80;99.90;;;;;;5045346;28;20217;-60
2023/10/23 05:52:50;;;;;;;4.47;4.07;;;6.80;99.90;;;;;;5046565;28;20242;-59
2023/10/23 05:55:18;;;;;;;5.83;4.80;;;6.80;99.90;;;;;;5043802;28;20685;-60
2023/10/23 05:57:48;;;;;;;11.17;5.40;;;6.70;99.90;;;;;;5040602;28;20642;-60
2023/10/23 06:00:18;;;;;;;11.63;5.40;;;6.70;99.90;;;;;;5043124;28;20220;-60
2023/10/23 06:02:46;;;;;;;7.07;5.30;;;6.70;99.90;;;;;;5075127;28;20223;-60
2023/10/23 06:05:15;;;;;;;8.40;4.80;;;6.70;99.90;;;;;;5079719;28;20219;-60
2023/10/23 06:07:43;;;;;;;6.53;4.80;;;6.70;99.90;;;;;;5086879;28;20276;-60
2023/10/23 06:10:11;;;;;;;9.60;5.10;;;6.60;99.90;;;;;;5082322;28;20241;-60
2023/10/23 06:12:40;;;;;;;6.83;5.37;;;6.50;99.90;;;;;;5086335;28;20740;-60
2023/10/23 06:15:11;;;;;;;7.20;5.20;;;6.50;99.90;;;;;;5075470;28;20730;-60
2023/10/23 06:17:39;;;;;;;8.00;5.17;;;6.40;99.90;;;;;;5073944;28;20654;-60
2023/10/23 06:20:08;;;;;;;9.30;5.70;;;6.40;99.90;;;;;;5068668;28;20225;-60
2023/10/23 06:22:36;;;;;;;7.23;5.53;;;6.40;99.90;;;;;;5072476;28;20192;-59
2023/10/23 06:25:05;;;;;;;9.40;5.90;;;6.40;99.90;;;;;;5063945;28;20211;-60
2023/10/23 06:27:34;;;;;;;10.80;5.63;;;6.40;99.90;;;;;;5084846;28;20222;-60
2023/10/23 06:30:02;;;;;;;7.77;5.40;;;6.30;99.90;;;;;;5084894;28;20266;-60
2023/10/23 06:32:34;;;;;;;7.07;5.80;;;6.40;99.90;;;;;;5080504;28;20228;-60
2023/10/23 06:35:04;;;;;;;12.23;6.10;;;6.40;99.90;;;;;;5084849;28;20220;-60
2023/10/23 06:37:35;;;;;;;10.57;6.70;;;6.40;99.90;;;;;;5091796;28;20218;-59
2023/10/23 06:40:03;;;;;;;12.80;6.43;;;6.40;99.90;;;;;;5085008;28;20203;-60
2023/10/23 06:42:32;;;;;;;9.47;6.57;;;6.40;99.90;;;;;;5087051;28;20554;-60
2023/10/23 06:45:00;;;;;;;8.33;6.10;;;6.50;99.90;;;;;;5070628;28;20219;-60
2023/10/23 06:47:28;;;;;;;12.77;6.37;;;6.60;99.90;;;;;;5091980;28;20315;-60
2023/10/23 06:49:59;;;;;;;13.23;6.70;;;6.80;99.90;;;;;;5089696;28;20219;-60
2023/10/23 06:52:27;;;;;;;14.00;6.47;;;7.00;99.90;;;;;;5084176;28;20222;-58
2023/10/23 06:54:55;;;;;;;9.87;6.90;;;7.10;99.90;;;;;;5088522;28;20200;-60
2023/10/23 06:57:24;;;;;;;12.00;6.93;;;7.20;99.90;;;;;;5084164;28;20226;-60
2023/10/23 06:59:54;;;;;;;14.03;7.10;;;7.20;99.90;;;;;;5082912;28;20219;-60
2023/10/23 07:02:22;;;;;;;14.67;7.40;;;7.30;99.90;;;;;;5086217;28;20231;-60
2023/10/23 07:04:51;;;;;;;13.40;7.40;;;7.40;99.90;;;;;;5085326;28;20234;-60
2023/10/23 07:07:20;;;;;;;13.67;6.97;;;7.50;99.90;;;;;;5067281;28;20192;-60
2023/10/23 07:09:59;;;;;;;17.67;6.77;;;7.50;99.90;;;;;;5090018;28;20671;-60
2023/10/23 07:12:28;;;;;;;18.53;7.53;;;7.60;99.90;;;;;;5091281;28;20215;-60
2023/10/23 07:14:57;;;;;;;15.37;7.13;;;7.70;99.90;;;;;;5085011;28;20230;-60
2023/10/23 07:17:25;;;;;;;16.13;7.07;;;7.70;99.90;;;;;;5090671;28;20277;-60
2023/10/23 07:19:53;;;;;;;13.37;7.23;;;7.80;99.90;;;;;;5090016;28;20215;-60
2023/10/23 07:22:23;;;;;;;21.87;7.50;;;7.90;99.90;;;;;;5080875;28;20196;-60
2023/10/23 07:24:54;;;;;;;17.43;7.00;;;7.90;99.90;;;;;;5080357;28;20227;-60
2023/10/23 07:27:23;;;;;;;7.83;6.10;;;7.90;99.90;;;;;;5076311;28;20219;-60
2023/10/23 07:29:52;;;;;;;9.60;6.73;;;8.00;99.90;;;;;;5083377;28;20230;-60
2023/10/23 07:32:20;;;;;;;17.80;7.50;;;8.10;99.90;;;;;;5087429;28;20226;-60
2023/10/23 07:34:48;;;;;;;16.73;6.90;;;8.20;99.90;;;;;;5085765;28;20235;-60
2023/10/23 07:37:18;;;;;;;14.73;7.30;;;8.30;99.90;;;;;;5085611;28;20199;-60
2023/10/23 07:39:48;;;;;;;19.93;7.87;;;8.30;99.90;;;;;;5082700;28;20219;-60
2023/10/23 07:42:17;;;;;;;20.20;8.17;;;8.50;99.90;;;;;;5082495;28;22102;-60
2023/10/23 07:44:45;;;;;;;18.83;7.13;;;8.50;99.90;;;;;;5090364;28;20221;-60
2023/10/23 07:47:13;;;;;;;17.40;7.57;;;8.60;99.90;;;;;;5081977;28;20243;-60
2023/10/23 07:49:42;;;;;;;23.10;7.30;;;8.70;99.90;;;;;;5066483;28;20207;-60
2023/10/23 07:52:10;;;;;;;25.63;7.80;;;8.70;99.90;;;;;;5068599;28;20638;-60
2023/10/23 07:54:38;;;;;;;21.30;7.57;;;8.80;99.90;;;;;;5071546;28;20239;-60
2023/10/23 07:57:08;;;;;;;25.73;8.33;;;8.90;99.90;;;;;;5066876;28;20674;-60
2023/10/23 07:59:36;;;;;;;17.07;6.77;;;8.90;99.90;;;;;;5059142;28;20669;-60
2023/10/23 08:02:05;;;;;;;19.27;7.20;;;9.00;99.90;;;;;;5075956;28;20236;-59
2023/10/23 08:04:34;;;;;;;20.70;7.23;;;9.10;99.90;;;;;;5068881;28;20524;-59
2023/10/23 08:07:21;;;;;;;28.90;7.43;;;9.20;99.90;;;;;;5070828;28;20204;-60
2023/10/23 08:09:49;;;;;;;20.73;7.07;;;9.30;99.90;;;;;;5085429;28;20587;-60
2023/10/23 08:12:18;;;;;;;19.10;6.50;;;9.40;99.90;;;;;;5085026;28;20307;-60
2023/10/23 08:14:47;;;;;;;18.30;7.13;;;9.40;99.90;;;;;;5086604;28;20211;-60
2023/10/23 08:17:15;;;;;;;14.37;6.70;;;9.50;99.90;;;;;;5100747;28;20207;-60
2023/10/23 08:20:03;;;;;;;20.07;6.67;;;9.60;99.90;;;;;;5089519;28;20219;-59
2023/10/23 08:22:32;;;;;;;14.90;5.93;;;9.70;99.90;;;;;;5086684;28;20232;-59
2023/10/23 08:25:00;;;;;;;10.30;5.70;;;9.80;99.90;;;;;;5081256;28;20222;-60
2023/10/23 08:27:30;;;;;;;16.93;5.83;;;9.90;99.90;;;;;;5083902;28;20299;-60
2023/10/23 08:29:58;;;;;;;16.13;5.57;;;9.90;99.90;;;;;;5084953;28;20211;-60
2023/10/23 08:32:26;;;;;;;15.77;5.50;;;10.00;99.90;;;;;;5081945;28;20215;-60
2023/10/23 08:35:08;;;;;;;13.27;5.40;;;10.00;99.90;;;;;;5073041;28;20230;-59
2023/10/23 08:37:36;;;;;;;14.47;5.67;;;10.10;99.90;;;;;;5085837;28;20487;-59
2023/10/23 08:40:06;;;;;;;18.03;5.20;;;10.30;99.90;;;;;;5086751;28;20200;-60
2023/10/23 08:42:36;;;;;;;14.47;5.33;;;10.40;99.90;;;;;;5085702;28;20692;-60
2023/10/23 08:45:04;;;;;;;16.63;5.70;;;10.50;99.90;;;;;;5080165;28;20241;-60
2023/10/23 08:47:32;;;;;;;13.90;5.37;;;10.60;99.90;;;;;;5080925;28;20219;-59
2023/10/23 08:50:02;;;;;;;13.77;5.60;;;10.70;99.90;;;;;;5079462;28;20244;-60
2023/10/23 08:52:35;;;;;;;14.30;5.77;;;10.80;99.90;;;;;;5095730;28;20202;-59
2023/10/23 08:55:05;;;;;;;12.60;4.97;;;10.90;99.90;;;;;;5082982;28;20554;-61
2023/10/23 08:57:37;;;;;;;13.13;5.13;;;11.00;99.90;;;;;;5082852;28;20226;-60
2023/10/23 09:00:07;;;;;;;11.87;5.13;;;11.10;99.90;;;;;;5085763;28;20211;-60
2023/10/23 09:02:35;;;;;;;15.57;6.40;;;11.20;99.90;;;;;;5081031;28;20212;-60
2023/10/23 09:05:20;;;;;;;17.10;6.60;;;11.40;99.90;;;;;;5080490;28;20286;-60
2023/10/23 09:07:49;;;;;;;14.43;5.83;;;11.40;99.90;;;;;;5077745;28;20230;-60
2023/10/23 09:10:17;;;;;;;8.67;5.73;;;11.50;99.90;;;;;;5080222;28;20685;-59
2023/10/23 09:12:47;;;;;;;12.73;5.70;;;11.60;99.90;;;;;;5080315;28;20249;-60
2023/10/23 09:15:17;;;;;;;11.37;4.97;;;11.60;99.90;;;;;;5083096;28;20238;-60
2023/10/23 09:17:45;;;;;;;11.17;5.23;;;11.70;99.90;;;;;;5065202;28;20693;-60
2023/10/23 09:20:24;;;;;;;13.27;5.10;;;11.80;99.90;;;;;;5082030;28;20260;-60
2023/10/23 09:22:56;;;;;;;13.67;5.10;;;11.80;99.90;;;;;;5079904;28;20223;-60
2023/10/23 09:25:25;;;;;;;8.40;4.17;;;11.90;99.90;;;;;;5084538;28;20624;-60
2023/10/23 09:27:55;;;;;;;12.10;4.43;;;12.00;99.90;;;;;;5086726;28;20203;-60
2023/10/23 09:30:23;;;;;;;17.43;5.13;;;12.10;99.90;;;;;;5081787;28;20246;-60
2023/10/23 09:32:53;;;;;;;12.70;4.33;;;12.20;99.90;;;;;;5080736;28;20281;-60
2023/10/23 09:35:24;;;;;;;7.43;4.07;;;12.30;99.90;;;;;;5078295;28;20268;-60
2023/10/23 09:37:53;;;;;;;9.10;3.70;;;12.50;99.90;;;;;;5078348;28;20238;-60
2023/10/23 09:40:21;;;;;;;12.03;4.27;;;12.60;99.90;;;;;;5081068;28;20554;-60
2023/10/23 09:42:50;;;;;;;10.10;4.97;;;12.70;99.90;;;;;;5054902;28;20220;-60
2023/10/23 09:45:23;;;;;;;13.27;4.73;;;12.80;99.90;;;;;;5065966;28;20216;-60
2023/10/23 09:47:55;;;;;;;13.33;5.83;;;12.80;99.90;;;;;;5067051;28;20620;-60
2023/10/23 09:50:25;;;;;;;12.87;6.10;;;12.80;99.90;;;;;;5066008;28;20718;-60
2023/10/23 09:52:58;;;;;;;14.77;6.37;;;12.80;99.90;;;;;;5065793;28;20230;-60
2023/10/23 09:55:28;;;;;;;16.03;6.40;;;12.90;99.90;;;;;;5062834;28;20207;-60
2023/10/23 09:57:58;;;;;;;13.17;6.50;;;13.00;99.90;;;;;;5067868;28;20189;-60
2023/10/23 10:00:29;;;;;;;12.60;6.30;;;12.90;99.90;;;;;;5064973;28;20293;-60
2023/10/23 10:03:05;;;;;;;14.70;6.57;;;12.90;99.90;;;;;;5080496;28;20810;-60
2023/10/23 10:05:38;;;;;;;9.43;6.07;;;13.00;99.90;;;;;;5087529;28;20219;-60
2023/10/23 10:08:09;;;;;;;18.67;6.80;;;13.10;99.90;;;;;;5082150;28;20221;-60
2023/10/23 10:10:39;;;;;;;12.03;6.47;;;13.20;99.90;;;;;;5089252;28;20223;-61
2023/10/23 10:13:10;;;;;;;26.27;7.30;;;13.20;99.90;;;;;;5069473;28;20287;-59
2023/10/23 10:15:39;;;;;;;12.13;6.10;;;13.20;99.90;;;;;;5085792;28;20308;-59
2023/10/23 10:18:08;;;;;;;15.43;6.50;;;13.20;99.90;;;;;;5082369;28;20220;-59
2023/10/23 10:20:37;;;;;;;14.70;6.30;;;13.30;99.90;;;;;;5085637;28;20217;-59
2023/10/23 10:23:08;;;;;;;11.67;7.00;;;13.40;99.90;;;;;;5082255;28;20220;-59
2023/10/23 10:25:40;;;;;;;12.50;6.37;;;13.40;99.90;;;;;;5085018;28;20248;-58
2023/10/23 10:28:09;;;;;;;21.67;6.67;;;13.50;99.90;;;;;;5085045;28;20225;-59
2023/10/23 10:30:41;;;;;;;12.80;5.83;;;13.50;99.90;;;;;;5081448;28;20679;-59
2023/10/23 10:33:11;;;;;;;19.00;5.67;;;13.50;99.90;;;;;;5086149;28;20954;-59
2023/10/23 10:36:03;;;;;;;15.37;5.50;;;13.50;99.90;;;;;;5084726;28;20627;-59
2023/10/23 10:38:32;;;;;;;13.47;6.10;;;13.60;99.90;;;;;;5063810;28;20252;-60
2023/10/23 10:41:02;;;;;;;11.50;5.00;;;13.50;99.90;;;;;;5084124;28;20231;-59
2023/10/23 10:43:32;;;;;;;13.53;5.03;;;13.50;99.90;;;;;;5083701;28;20185;-59
2023/10/23 10:46:04;;;;;;;13.80;4.63;;;13.60;99.90;;;;;;5066410;28;20220;-59
2023/10/23 10:48:43;;;;;;;10.37;4.27;;;13.60;99.90;;;;;;5058048;28;20680;-59
2023/10/23 10:51:15;;;;;;;14.53;4.87;;;13.60;99.90;;;;;;5059074;28;20222;-59
2023/10/23 10:53:43;;;;;;;14.20;4.57;;;13.60;99.90;;;;;;5065319;28;20299;-59
2023/10/23 10:56:12;;;;;;;14.57;4.33;;;13.50;99.90;;;;;;5061487;28;20241;-59
2023/10/23 10:58:43;;;;;;;12.57;4.90;;;13.60;99.90;;;;;;5069150;28;20261;-59
2023/10/23 11:01:12;;;;;;;15.30;4.57;;;13.60;99.90;;;;;;5087339;28;20200;-59
2023/10/23 11:03:41;;;;;;;13.20;4.47;;;13.60;99.90;;;;;;5078820;28;20224;-59
2023/10/23 11:06:10;;;;;;;13.73;4.60;;;13.60;99.90;;;;;;5083569;28;20248;-59
2023/10/23 11:08:39;;;;;;;14.80;4.00;;;13.70;99.90;;;;;;5083244;28;20223;-59
2023/10/23 11:11:09;;;;;;;16.90;4.57;;;13.70;99.90;;;;;;5084623;28;20216;-59
2023/10/23 11:13:40;;;;;;;7.37;4.10;;;13.70;99.90;;;;;;5065879;28;20200;-59
2023/10/23 11:16:08;;;;;;;13.57;4.47;;;13.80;99.90;;;;;;5086726;28;20182;-59
2023/10/23 11:18:38;;;;;;;15.27;4.70;;;13.80;99.90;;;;;;5080618;28;20274;-59
2023/10/23 11:21:07;;;;;;;8.77;4.83;;;13.80;99.90;;;;;;5083551;28;20223;-59
2023/10/23 11:23:35;;;;;;;7.77;4.10;;;13.90;99.90;;;;;;5084846;28;20221;-59
2023/10/23 11:26:03;;;;;;;8.20;3.53;;;13.80;99.90;;;;;;5082493;28;20238;-59
2023/10/23 11:28:32;;;;;;;10.13;3.50;;;13.80;99.90;;;;;;5086434;28;20193;-59
2023/10/23 11:31:00;;;;;;;11.93;3.53;;;13.70;99.90;;;;;;5086184;28;20193;-59
2023/10/23 11:33:28;;;;;;;14.33;3.90;;;13.70;99.90;;;;;;5081265;28;20219;-59
2023/10/23 11:35:59;;;;;;;10.23;3.40;;;13.70;99.90;;;;;;5081544;28;20608;-59
2023/10/23 11:38:28;;;;;;;11.07;3.73;;;13.70;99.90;;;;;;5073894;28;20277;-60
2023/10/23 11:40:56;;;;;;;9.63;3.40;;;13.80;99.90;;;;;;5050343;28;20258;-59
2023/10/23 11:43:24;;;;;;;12.37;3.70;;;13.80;99.90;;;;;;5067213;28;20194;-58
2023/10/23 11:45:53;;;;;;;8.70;4.03;;;13.70;99.90;;;;;;5045551;28;20207;-59
2023/10/23 11:48:21;;;;;;;11.77;3.90;;;13.60;99.90;;;;;;5068308;28;20575;-59
2023/10/23 11:50:52;;;;;;;8.37;3.23;;;13.60;99.90;;;;;;5060939;28;20218;-59
2023/10/23 11:53:22;;;;;;;11.03;3.53;;;13.70;99.90;;;;;;5060938;28;20223;-60
2023/10/23 11:55:51;;;;;;;8.30;3.30;;;13.70;99.90;;;;;;5059646;28;20225;-59
2023/10/23 11:58:26;;;;;;;16.03;3.80;;;13.80;99.90;;;;;;5059768;28;20190;-60
2023/10/23 12:00:54;;;;;;;7.47;3.67;;;13.80;99.90;;;;;;5085097;28;20618;-60
2023/10/23 12:03:23;;;;;;;8.33;3.50;;;13.90;99.90;;;;;;5075599;28;20227;-59
2023/10/23 12:05:51;;;;;;;8.97;2.90;;;13.90;99.90;;;;;;5082033;28;20225;-59
2023/10/23 12:08:21;;;;;;;7.60;3.50;;;13.90;99.90;;;;;;5085185;28;20234;-59
2023/10/23 12:10:49;;;;;;;11.23;3.87;;;14.00;99.90;;;;;;5078565;28;20579;-59
2023/10/23 12:13:17;;;;;;;12.17;3.80;;;14.10;99.90;;;;;;5084208;28;20197;-60
2023/10/23 12:15:45;;;;;;;7.37;3.33;;;14.10;99.90;;;;;;5086571;28;20587;-59
2023/10/23 12:18:13;;;;;;;8.00;3.30;;;14.10;99.90;;;;;;5088695;28;20308;-59
2023/10/23 12:20:42;;;;;;;7.80;3.43;;;14.10;99.40;;;;;;5090291;28;20271;-59
2023/10/23 12:23:12;;;;;;;11.47;3.43;;;14.10;99.40;;;;;;5076752;28;20302;-59
2023/10/23 12:25:42;;;;;;;7.67;3.03;;;14.00;99.90;;;;;;5062437;28;20195;-60
2023/10/23 12:28:11;;;;;;;8.63;3.00;;;13.90;99.90;;;;;;5067004;28;20202;-60
2023/10/23 12:30:39;;;;;;;10.63;3.60;;;13.90;99.90;;;;;;5058880;28;20278;-60
2023/10/23 12:33:07;;;;;;;11.77;3.60;;;13.90;99.90;;;;;;5043940;28;20707;-61
2023/10/23 12:35:52;;;;;;;12.23;4.30;;;13.80;99.90;;;;;;5060867;28;20727;-60
2023/10/23 12:38:20;;;;;;;7.30;3.90;;;13.80;99.90;;;;;;5071624;28;20220;-60
2023/10/23 12:40:50;;;;;;;7.13;3.47;;;13.80;99.90;;;;;;5086954;28;20238;-60
2023/10/23 12:43:18;;;;;;;6.80;3.53;;;13.80;99.90;;;;;;5086770;28;20254;-60
2023/10/23 12:45:46;;;;;;;6.03;3.67;;;13.80;99.90;;;;;;5082299;28;20682;-60
2023/10/23 12:48:15;;;;;;;7.87;3.27;;;13.70;99.90;;;;;;5081184;28;20219;-60
2023/10/23 12:50:44;;;;;;;10.57;3.70;;;13.70;99.90;;;;;;5078735;28;20219;-60
2023/10/23 12:53:12;;;;;;;7.90;3.30;;;13.80;99.90;;;;;;5083786;28;20309;-59
2023/10/23 12:55:42;;;;;;;6.80;3.03;;;13.80;99.90;;;;;;5057140;28;20202;-60
2023/10/23 12:58:12;;;;;;;9.70;3.30;;;13.80;99.90;;;;;;5080760;28;20189;-60